sensor_id;sensor_type;location;lat;lon;timestamp;pressure;altitude;pressure_sealevel;temperature;humidity
49341;BME280;35209;51.050;13.678;2023-02-19T00:03:13;99842.81;;;9.25;97.58
49341;BME280;35209;51.050;13.678;2023-02-19T00:08:15;99832.31;;;9.26;97.22
49341;BME280;35209;51.050;13.678;2023-02-19T00:13:16;99822.59;;;9.28;96.80
49341;BME280;35209;51.050;13.678;2023-02-19T00:18:19;99831.59;;;9.21;96.82
49341;BME280;35209;51.050;13.678;2023-02-19T00:23:21;99817.91;;;9.10;97.71
49341;BME280;35209;51.050;13.678;2023-02-19T00:28:24;99815.22;;;9.12;96.94
49341;BME280;35209;51.050;13.678;2023-02-19T00:33:25;99820.44;;;9.13;97.10
49341;BME280;35209;51.050;13.678;2023-02-19T00:38:29;99820.59;;;9.08;97.92
49341;BME280;35209;51.050;13.678;2023-02-19T00:43:31;99814.63;;;9.03;98.56
49341;BME280;35209;51.050;13.678;2023-02-19T00:48:32;99811.22;;;9.00;98.72
49341;BME280;35209;51.050;13.678;2023-02-19T00:53:34;99808.63;;;8.98;98.93
49341;BME280;35209;51.050;13.678;2023-02-19T00:58:36;99798.25;;;8.95;98.47
49341;BME280;35209;51.050;13.678;2023-02-19T01:03:39;99798.13;;;8.98;97.38
49341;BME280;35209;51.050;13.678;2023-02-19T01:08:41;99789.53;;;8.95;98.27
49341;BME280;35209;51.050;13.678;2023-02-19T01:13:43;99779.97;;;8.92;98.27
49341;BME280;35209;51.050;13.678;2023-02-19T01:18:45;99776.50;;;8.92;97.67
49341;BME280;35209;51.050;13.678;2023-02-19T01:23:49;99754.69;;;8.91;97.72
49341;BME280;35209;51.050;13.678;2023-02-19T01:28:51;99758.94;;;8.94;99.95
49341;BME280;35209;51.050;13.678;2023-02-19T01:33:56;99744.13;;;8.94;100.00
49341;BME280;35209;51.050;13.678;2023-02-19T01:38:59;99733.25;;;8.77;100.00
49341;BME280;35209;51.050;13.678;2023-02-19T01:49:15;99710.94;;;8.64;100.00
49341;BME280;35209;51.050;13.678;2023-02-19T01:54:21;99709.19;;;8.64;100.00
49341;BME280;35209;51.050;13.678;2023-02-19T01:59:24;99707.28;;;8.69;100.00
49341;BME280;35209;51.050;13.678;2023-02-19T02:04:29;99711.94;;;8.59;100.00
49341;BME280;35209;51.050;13.678;2023-02-19T02:09:31;99699.16;;;8.47;100.00
49341;BME280;35209;51.050;13.678;2023-02-19T02:15:08;99695.09;;;8.37;100.00
49341;BME280;35209;51.050;13.678;2023-02-19T02:25:23;99686.47;;;8.32;100.00
49341;BME280;35209;51.050;13.678;2023-02-19T02:35:48;99678.84;;;8.24;100.00
49341;BME280;35209;51.050;13.678;2023-02-19T02:40:53;99661.09;;;8.34;100.00
49341;BME280;35209;51.050;13.678;2023-02-19T02:45:56;99664.97;;;8.21;100.00
49341;BME280;35209;51.050;13.678;2023-02-19T02:56:14;99653.78;;;8.14;100.00
49341;BME280;35209;51.050;13.678;2023-02-19T03:01:28;99634.59;;;8.15;100.00
49341;BME280;35209;51.050;13.678;2023-02-19T03:07:02;99637.09;;;8.20;100.00
49341;BME280;35209;51.050;13.678;2023-02-19T03:12:13;99626.75;;;8.15;100.00
49341;BME280;35209;51.050;13.678;2023-02-19T03:17:43;99619.41;;;8.26;100.00
49341;BME280;35209;51.050;13.678;2023-02-19T03:23:08;99613.53;;;8.20;100.00
49341;BME280;35209;51.050;13.678;2023-02-19T03:28:12;99602.41;;;8.12;100.00
49341;BME280;35209;51.050;13.678;2023-02-19T03:33:25;99594.22;;;8.22;100.00
49341;BME280;35209;51.050;13.678;2023-02-19T03:38:35;99591.09;;;8.09;100.00
49341;BME280;35209;51.050;13.678;2023-02-19T03:49:24;99581.59;;;8.07;100.00
49341;BME280;35209;51.050;13.678;2023-02-19T03:59:51;99569.97;;;7.86;100.00
49341;BME280;35209;51.050;13.678;2023-02-19T04:10:10;99559.56;;;7.84;100.00
49341;BME280;35209;51.050;13.678;2023-02-19T04:15:21;99561.78;;;7.98;100.00
49341;BME280;35209;51.050;13.678;2023-02-19T04:20:28;99547.97;;;7.93;100.00
49341;BME280;35209;51.050;13.678;2023-02-19T04:25:30;99553.00;;;7.99;100.00
49341;BME280;35209;51.050;13.678;2023-02-19T04:30:33;99548.81;;;7.94;100.00
49341;BME280;35209;51.050;13.678;2023-02-19T04:35:35;99549.59;;;7.97;100.00
49341;BME280;35209;51.050;13.678;2023-02-19T04:40:37;99534.16;;;7.88;100.00
49341;BME280;35209;51.050;13.678;2023-02-19T04:45:38;99520.06;;;7.92;100.00
49341;BME280;35209;51.050;13.678;2023-02-19T04:50:40;99518.28;;;7.94;100.00
49341;BME280;35209;51.050;13.678;2023-02-19T04:55:42;99529.09;;;7.82;100.00
49341;BME280;35209;51.050;13.678;2023-02-19T05:00:43;99542.44;;;7.73;100.00
49341;BME280;35209;51.050;13.678;2023-02-19T05:05:45;99532.41;;;7.57;100.00
49341;BME280;35209;51.050;13.678;2023-02-19T05:10:47;99545.81;;;7.45;100.00
49341;BME280;35209;51.050;13.678;2023-02-19T05:16:06;99560.59;;;7.46;100.00
49341;BME280;35209;51.050;13.678;2023-02-19T05:21:09;99555.13;;;7.55;100.00
49341;BME280;35209;51.050;13.678;2023-02-19T05:26:17;99548.50;;;7.73;100.00
49341;BME280;35209;51.050;13.678;2023-02-19T05:31:20;99539.75;;;7.74;100.00
49341;BME280;35209;51.050;13.678;2023-02-19T05:36:22;99556.47;;;7.70;100.00
49341;BME280;35209;51.050;13.678;2023-02-19T05:41:26;99557.47;;;7.65;100.00
49341;BME280;35209;51.050;13.678;2023-02-19T05:46:28;99559.19;;;7.66;100.00
49341;BME280;35209;51.050;13.678;2023-02-19T05:51:30;99561.53;;;7.76;100.00
49341;BME280;35209;51.050;13.678;2023-02-19T05:56:41;99557.22;;;7.74;100.00
49341;BME280;35209;51.050;13.678;2023-02-19T06:01:44;99576.44;;;7.73;100.00
49341;BME280;35209;51.050;13.678;2023-02-19T06:06:46;99576.09;;;7.85;100.00
49341;BME280;35209;51.050;13.678;2023-02-19T06:11:48;99587.44;;;7.86;100.00
49341;BME280;35209;51.050;13.678;2023-02-19T06:16:50;99588.09;;;7.92;100.00
49341;BME280;35209;51.050;13.678;2023-02-19T06:21:51;99603.19;;;7.84;100.00
49341;BME280;35209;51.050;13.678;2023-02-19T06:26:57;99596.91;;;7.90;100.00
49341;BME280;35209;51.050;13.678;2023-02-19T06:31:59;99612.31;;;8.00;100.00
49341;BME280;35209;51.050;13.678;2023-02-19T06:37:02;99612.53;;;7.93;100.00
49341;BME280;35209;51.050;13.678;2023-02-19T06:42:03;99619.38;;;7.97;100.00
49341;BME280;35209;51.050;13.678;2023-02-19T06:47:05;99619.88;;;7.78;100.00
49341;BME280;35209;51.050;13.678;2023-02-19T06:52:07;99632.03;;;7.81;100.00
49341;BME280;35209;51.050;13.678;2023-02-19T06:57:09;99631.06;;;7.85;100.00
49341;BME280;35209;51.050;13.678;2023-02-19T07:02:11;99631.44;;;7.70;100.00
49341;BME280;35209;51.050;13.678;2023-02-19T07:07:13;99641.34;;;7.58;100.00
49341;BME280;35209;51.050;13.678;2023-02-19T07:12:15;99660.94;;;7.76;100.00
49341;BME280;35209;51.050;13.678;2023-02-19T07:17:16;99670.31;;;7.51;100.00
49341;BME280;35209;51.050;13.678;2023-02-19T07:22:18;99666.66;;;7.58;100.00
49341;BME280;35209;51.050;13.678;2023-02-19T07:27:20;99665.81;;;7.57;100.00
49341;BME280;35209;51.050;13.678;2023-02-19T07:32:21;99701.81;;;7.46;100.00
49341;BME280;35209;51.050;13.678;2023-02-19T07:37:23;99718.63;;;7.36;100.00
49341;BME280;35209;51.050;13.678;2023-02-19T07:42:25;99742.97;;;6.99;100.00
49341;BME280;35209;51.050;13.678;2023-02-19T07:47:28;99760.28;;;6.63;100.00
49341;BME280;35209;51.050;13.678;2023-02-19T07:52:29;99775.75;;;6.29;100.00
49341;BME280;35209;51.050;13.678;2023-02-19T07:57:31;99785.63;;;6.12;100.00
49341;BME280;35209;51.050;13.678;2023-02-19T08:02:33;99792.94;;;5.88;100.00
49341;BME280;35209;51.050;13.678;2023-02-19T08:07:53;99810.53;;;5.77;100.00
49341;BME280;35209;51.050;13.678;2023-02-19T08:12:59;99814.09;;;5.71;100.00
49341;BME280;35209;51.050;13.678;2023-02-19T08:18:24;99805.56;;;5.60;100.00
49341;BME280;35209;51.050;13.678;2023-02-19T08:23:27;99841.41;;;5.44;100.00
49341;BME280;35209;51.050;13.678;2023-02-19T08:28:29;99859.91;;;5.26;100.00
49341;BME280;35209;51.050;13.678;2023-02-19T08:33:31;99880.06;;;5.12;100.00
49341;BME280;35209;51.050;13.678;2023-02-19T08:38:34;99888.91;;;4.98;100.00
49341;BME280;35209;51.050;13.678;2023-02-19T08:43:36;99906.31;;;4.96;100.00
49341;BME280;35209;51.050;13.678;2023-02-19T08:48:39;99930.84;;;4.75;100.00
49341;BME280;35209;51.050;13.678;2023-02-19T08:53:41;99950.91;;;4.66;100.00
49341;BME280;35209;51.050;13.678;2023-02-19T08:58:43;99966.53;;;4.63;100.00
49341;BME280;35209;51.050;13.678;2023-02-19T09:03:45;99983.91;;;4.61;100.00
49341;BME280;35209;51.050;13.678;2023-02-19T09:08:47;99996.13;;;4.52;100.00
49341;BME280;35209;51.050;13.678;2023-02-19T09:13:48;100011.00;;;4.34;100.00
49341;BME280;35209;51.050;13.678;2023-02-19T09:18:50;100028.41;;;4.27;100.00
49341;BME280;35209;51.050;13.678;2023-02-19T09:23:52;100037.97;;;4.22;100.00
49341;BME280;35209;51.050;13.678;2023-02-19T09:28:54;100067.56;;;3.98;100.00
49341;BME280;35209;51.050;13.678;2023-02-19T09:33:55;100069.38;;;3.90;100.00
49341;BME280;35209;51.050;13.678;2023-02-19T09:38:57;100098.81;;;3.84;100.00
49341;BME280;35209;51.050;13.678;2023-02-19T09:44:02;100117.09;;;3.57;100.00
49341;BME280;35209;51.050;13.678;2023-02-19T09:49:10;100131.00;;;3.43;100.00
49341;BME280;35209;51.050;13.678;2023-02-19T09:54:22;100142.22;;;3.67;100.00
49341;BME280;35209;51.050;13.678;2023-02-19T09:59:32;100137.88;;;3.78;100.00
49341;BME280;35209;51.050;13.678;2023-02-19T10:04:40;100155.19;;;3.90;100.00
49341;BME280;35209;51.050;13.678;2023-02-19T10:10:01;100149.06;;;3.97;100.00
49341;BME280;35209;51.050;13.678;2023-02-19T10:15:11;100159.47;;;4.08;100.00
49341;BME280;35209;51.050;13.678;2023-02-19T10:20:18;100182.81;;;4.23;100.00
49341;BME280;35209;51.050;13.678;2023-02-19T10:25:22;100186.28;;;4.22;100.00
49341;BME280;35209;51.050;13.678;2023-02-19T10:30:28;100193.06;;;4.58;100.00
49341;BME280;35209;51.050;13.678;2023-02-19T10:35:35;100201.81;;;4.40;100.00
49341;BME280;35209;51.050;13.678;2023-02-19T10:40:44;100205.03;;;4.91;100.00
49341;BME280;35209;51.050;13.678;2023-02-19T10:45:47;100217.25;;;4.83;100.00
49341;BME280;35209;51.050;13.678;2023-02-19T10:50:55;100225.13;;;4.74;100.00
49341;BME280;35209;51.050;13.678;2023-02-19T10:56:10;100226.81;;;4.79;100.00
49341;BME280;35209;51.050;13.678;2023-02-19T11:01:22;100231.03;;;5.02;100.00
49341;BME280;35209;51.050;13.678;2023-02-19T11:06:25;100237.06;;;5.07;100.00
49341;BME280;35209;51.050;13.678;2023-02-19T11:11:33;100248.28;;;5.23;99.32
49341;BME280;35209;51.050;13.678;2023-02-19T11:16:39;100254.47;;;5.05;94.70
49341;BME280;35209;51.050;13.678;2023-02-19T11:21:41;100260.47;;;5.13;97.46
49341;BME280;35209;51.050;13.678;2023-02-19T11:26:43;100264.66;;;5.36;92.96
49341;BME280;35209;51.050;13.678;2023-02-19T11:31:45;100274.34;;;5.17;93.01
49341;BME280;35209;51.050;13.678;2023-02-19T11:37:07;100276.22;;;4.95;95.10
49341;BME280;35209;51.050;13.678;2023-02-19T11:42:23;100288.09;;;5.43;92.26
49341;BME280;35209;51.050;13.678;2023-02-19T12:03:35;100318.72;;;5.04;91.18
49341;BME280;35209;51.050;13.678;2023-02-19T12:14:21;100336.75;;;5.44;84.69
49341;BME280;35209;51.050;13.678;2023-02-19T12:19:54;100340.25;;;5.39;82.27
49341;BME280;35209;51.050;13.678;2023-02-19T12:36:04;100329.81;;;5.42;83.00
49341;BME280;35209;51.050;13.678;2023-02-19T12:41:44;100327.19;;;5.49;81.58
49341;BME280;35209;51.050;13.678;2023-02-19T12:46:56;100333.97;;;5.72;81.78
49341;BME280;35209;51.050;13.678;2023-02-19T12:52:18;100327.94;;;5.64;76.28
49341;BME280;35209;51.050;13.678;2023-02-19T12:57:26;100338.44;;;5.54;77.70
49341;BME280;35209;51.050;13.678;2023-02-19T13:07:39;100347.84;;;5.77;75.21
49341;BME280;35209;51.050;13.678;2023-02-19T13:12:45;100353.09;;;5.69;73.69
49341;BME280;35209;51.050;13.678;2023-02-19T13:17:52;100351.50;;;5.48;74.39
49341;BME280;35209;51.050;13.678;2023-02-19T13:33:36;100364.66;;;5.28;74.12
49341;BME280;35209;51.050;13.678;2023-02-19T13:38:45;100374.25;;;5.17;74.69
49341;BME280;35209;51.050;13.678;2023-02-19T13:43:54;100382.00;;;5.29;73.64
49341;BME280;35209;51.050;13.678;2023-02-19T13:54:34;100376.81;;;5.25;72.22
49341;BME280;35209;51.050;13.678;2023-02-19T13:59:40;100383.59;;;5.60;70.18
49341;BME280;35209;51.050;13.678;2023-02-19T14:04:58;100385.38;;;5.48;70.72
49341;BME280;35209;51.050;13.678;2023-02-19T14:10:01;100382.81;;;5.39;72.38
49341;BME280;35209;51.050;13.678;2023-02-19T14:20:42;100415.78;;;5.52;72.05
49341;BME280;35209;51.050;13.678;2023-02-19T14:25:49;100409.75;;;5.44;72.38
49341;BME280;35209;51.050;13.678;2023-02-19T14:30:54;100421.09;;;5.40;75.83
49341;BME280;35209;51.050;13.678;2023-02-19T14:41:10;100415.66;;;5.74;72.85
49341;BME280;35209;51.050;13.678;2023-02-19T14:46:40;100419.94;;;5.93;71.19
49341;BME280;35209;51.050;13.678;2023-02-19T14:51:49;100420.78;;;5.98;71.88
49341;BME280;35209;51.050;13.678;2023-02-19T14:56:53;100426.00;;;5.95;68.61
49341;BME280;35209;51.050;13.678;2023-02-19T15:01:57;100443.47;;;5.78;70.58
49341;BME280;35209;51.050;13.678;2023-02-19T15:07:02;100453.06;;;5.74;71.32
49341;BME280;35209;51.050;13.678;2023-02-19T15:12:06;100450.66;;;5.36;72.56
49341;BME280;35209;51.050;13.678;2023-02-19T15:17:15;100446.34;;;5.23;73.51
49341;BME280;35209;51.050;13.678;2023-02-19T15:22:20;100453.31;;;5.12;74.09
49341;BME280;35209;51.050;13.678;2023-02-19T15:27:23;100453.22;;;5.39;71.27
49341;BME280;35209;51.050;13.678;2023-02-19T15:32:26;100465.44;;;5.29;71.17
49341;BME280;35209;51.050;13.678;2023-02-19T15:37:30;100463.75;;;5.07;71.18
49341;BME280;35209;51.050;13.678;2023-02-19T15:42:34;100464.56;;;5.24;71.12
49341;BME280;35209;51.050;13.678;2023-02-19T16:03:25;100479.38;;;5.22;69.39
49341;BME280;35209;51.050;13.678;2023-02-19T16:08:35;100473.31;;;5.08;70.60
49341;BME280;35209;51.050;13.678;2023-02-19T16:13:37;100482.03;;;4.90;72.05
49341;BME280;35209;51.050;13.678;2023-02-19T16:18:46;100482.94;;;4.78;72.89
49341;BME280;35209;51.050;13.678;2023-02-19T16:23:52;100481.19;;;4.58;74.73
49341;BME280;35209;51.050;13.678;2023-02-19T16:28:59;100485.53;;;4.71;74.95
49341;BME280;35209;51.050;13.678;2023-02-19T16:34:16;100484.66;;;4.64;75.84
49341;BME280;35209;51.050;13.678;2023-02-19T16:39:19;100505.50;;;4.47;77.66
49341;BME280;35209;51.050;13.678;2023-02-19T16:49:26;100545.34;;;4.19;79.68
49341;BME280;35209;51.050;13.678;2023-02-19T16:54:28;100546.25;;;4.33;78.45
49341;BME280;35209;51.050;13.678;2023-02-19T16:59:30;100557.56;;;4.43;77.28
49341;BME280;35209;51.050;13.678;2023-02-19T17:04:32;100559.19;;;4.12;79.36
49341;BME280;35209;51.050;13.678;2023-02-19T17:09:35;100577.41;;;4.10;78.55
49341;BME280;35209;51.050;13.678;2023-02-19T17:14:36;100596.47;;;4.03;79.43
49341;BME280;35209;51.050;13.678;2023-02-19T17:19:38;100593.06;;;4.28;76.91
49341;BME280;35209;51.050;13.678;2023-02-19T17:24:40;100591.25;;;4.01;78.35
49341;BME280;35209;51.050;13.678;2023-02-19T17:29:44;100598.22;;;4.05;78.10
49341;BME280;35209;51.050;13.678;2023-02-19T17:34:46;100615.53;;;3.94;79.37
49341;BME280;35209;51.050;13.678;2023-02-19T17:39:50;100619.88;;;4.00;78.81
49341;BME280;35209;51.050;13.678;2023-02-19T17:44:51;100621.53;;;3.89;79.25
49341;BME280;35209;51.050;13.678;2023-02-19T17:49:56;100632.72;;;3.71;80.54
49341;BME280;35209;51.050;13.678;2023-02-19T17:54:58;100638.84;;;3.77;80.55
49341;BME280;35209;51.050;13.678;2023-02-19T18:00:00;100645.88;;;3.95;79.15
49341;BME280;35209;51.050;13.678;2023-02-19T18:05:13;100642.31;;;3.79;79.93
49341;BME280;35209;51.050;13.678;2023-02-19T18:10:16;100643.16;;;3.80;80.24
49341;BME280;35209;51.050;13.678;2023-02-19T18:15:22;100643.97;;;3.70;80.60
49341;BME280;35209;51.050;13.678;2023-02-19T18:20:27;100652.75;;;3.87;80.12
49341;BME280;35209;51.050;13.678;2023-02-19T18:25:32;100657.91;;;3.79;80.26
49341;BME280;35209;51.050;13.678;2023-02-19T18:30:35;100667.38;;;3.71;80.22
49341;BME280;35209;51.050;13.678;2023-02-19T18:35:38;100667.28;;;3.56;81.34
49341;BME280;35209;51.050;13.678;2023-02-19T18:40:40;100676.66;;;3.36;82.92
49341;BME280;35209;51.050;13.678;2023-02-19T18:45:42;100678.28;;;3.21;84.84
49341;BME280;35209;51.050;13.678;2023-02-19T18:50:46;100691.19;;;3.11;85.73
49341;BME280;35209;51.050;13.678;2023-02-19T18:55:48;100684.16;;;3.00;86.53
49341;BME280;35209;51.050;13.678;2023-02-19T19:00:56;100688.69;;;3.21;84.73
49341;BME280;35209;51.050;13.678;2023-02-19T19:06:08;100678.22;;;3.12;85.07
49341;BME280;35209;51.050;13.678;2023-02-19T19:11:10;100676.53;;;3.16;85.11
49341;BME280;35209;51.050;13.678;2023-02-19T19:16:13;100686.78;;;3.03;87.02
49341;BME280;35209;51.050;13.678;2023-02-19T19:21:19;100686.91;;;3.16;87.19
49341;BME280;35209;51.050;13.678;2023-02-19T19:26:21;100695.44;;;3.04;88.85
49341;BME280;35209;51.050;13.678;2023-02-19T19:31:22;100694.59;;;3.03;89.73
49341;BME280;35209;51.050;13.678;2023-02-19T19:36:28;100687.69;;;3.09;90.55
49341;BME280;35209;51.050;13.678;2023-02-19T19:41:30;100689.38;;;3.02;90.51
49341;BME280;35209;51.050;13.678;2023-02-19T19:46:32;100695.41;;;2.99;90.56
49341;BME280;35209;51.050;13.678;2023-02-19T19:51:34;100693.44;;;2.77;91.57
49341;BME280;35209;51.050;13.678;2023-02-19T19:56:45;100690.94;;;2.86;90.93
49341;BME280;35209;51.050;13.678;2023-02-19T20:01:54;100692.63;;;2.83;90.35
49341;BME280;35209;51.050;13.678;2023-02-19T20:07:01;100690.91;;;2.82;90.09
49341;BME280;35209;51.050;13.678;2023-02-19T20:12:03;100690.03;;;2.80;90.19
49341;BME280;35209;51.050;13.678;2023-02-19T20:17:05;100679.69;;;2.84;89.51
49341;BME280;35209;51.050;13.678;2023-02-19T20:22:11;100693.50;;;2.82;89.32
49341;BME280;35209;51.050;13.678;2023-02-19T20:27:13;100691.53;;;2.58;90.89
49341;BME280;35209;51.050;13.678;2023-02-19T20:32:19;100692.31;;;2.50;91.94
49341;BME280;35209;51.050;13.678;2023-02-19T20:37:21;100672.50;;;2.57;91.92
49341;BME280;35209;51.050;13.678;2023-02-19T20:42:27;100673.25;;;2.50;92.09
49341;BME280;35209;51.050;13.678;2023-02-19T20:47:29;100687.91;;;2.46;92.39
49341;BME280;35209;51.050;13.678;2023-02-19T20:52:30;100694.78;;;2.43;92.83
49341;BME280;35209;51.050;13.678;2023-02-19T20:57:32;100699.09;;;2.41;93.39
49341;BME280;35209;51.050;13.678;2023-02-19T21:02:34;100707.81;;;2.44;93.29
49341;BME280;35209;51.050;13.678;2023-02-19T21:07:35;100719.06;;;2.46;93.44
49341;BME280;35209;51.050;13.678;2023-02-19T21:12:37;100735.50;;;2.45;93.09
49341;BME280;35209;51.050;13.678;2023-02-19T21:17:39;100730.41;;;2.55;93.04
49341;BME280;35209;51.050;13.678;2023-02-19T21:22:41;100733.13;;;2.65;92.23
49341;BME280;35209;51.050;13.678;2023-02-19T21:27:42;100732.13;;;2.52;93.38
49341;BME280;35209;51.050;13.678;2023-02-19T21:32:44;100742.63;;;2.62;93.15
49341;BME280;35209;51.050;13.678;2023-02-19T21:37:46;100750.25;;;2.51;94.09
49341;BME280;35209;51.050;13.678;2023-02-19T21:42:48;100751.22;;;2.58;93.24
49341;BME280;35209;51.050;13.678;2023-02-19T21:47:49;100752.09;;;2.58;94.10
49341;BME280;35209;51.050;13.678;2023-02-19T21:52:55;100756.66;;;2.79;92.83
49341;BME280;35209;51.050;13.678;2023-02-19T21:57:57;100749.72;;;2.78;91.87
49341;BME280;35209;51.050;13.678;2023-02-19T22:02:58;100747.09;;;2.75;92.27
49341;BME280;35209;51.050;13.678;2023-02-19T22:08:00;100743.56;;;2.70;92.38
49341;BME280;35209;51.050;13.678;2023-02-19T22:13:02;100740.09;;;2.69;92.88
49341;BME280;35209;51.050;13.678;2023-02-19T22:18:04;100731.44;;;2.67;92.70
49341;BME280;35209;51.050;13.678;2023-02-19T22:23:06;100723.66;;;2.69;92.16
49341;BME280;35209;51.050;13.678;2023-02-19T22:28:07;100715.72;;;2.55;93.62
49341;BME280;35209;51.050;13.678;2023-02-19T22:33:09;100719.31;;;2.68;92.89
49341;BME280;35209;51.050;13.678;2023-02-19T22:38:11;100712.53;;;2.82;92.15
49341;BME280;35209;51.050;13.678;2023-02-19T22:43:16;100714.06;;;2.63;93.54
49341;BME280;35209;51.050;13.678;2023-02-19T22:48:18;100710.56;;;2.60;95.05
49341;BME280;35209;51.050;13.678;2023-02-19T22:53:30;100721.97;;;2.71;94.16
49341;BME280;35209;51.050;13.678;2023-02-19T22:58:32;100715.91;;;2.73;94.67
49341;BME280;35209;51.050;13.678;2023-02-19T23:03:34;100707.44;;;2.90;93.29
49341;BME280;35209;51.050;13.678;2023-02-19T23:08:35;100696.91;;;2.76;94.93
49341;BME280;35209;51.050;13.678;2023-02-19T23:13:39;100683.06;;;2.75;95.56
49341;BME280;35209;51.050;13.678;2023-02-19T23:18:42;100671.81;;;2.75;96.19
49341;BME280;35209;51.050;13.678;2023-02-19T23:23:45;100673.69;;;2.88;95.65
49341;BME280;35209;51.050;13.678;2023-02-19T23:28:47;100663.16;;;2.77;97.26
49341;BME280;35209;51.050;13.678;2023-02-19T23:33:48;100663.22;;;2.82;97.27
49341;BME280;35209;51.050;13.678;2023-02-19T23:38:50;100664.25;;;2.99;96.37
49341;BME280;35209;51.050;13.678;2023-02-19T23:43:53;100677.28;;;3.04;96.15
49341;BME280;35209;51.050;13.678;2023-02-19T23:48:54;100651.28;;;3.04;96.04
49341;BME280;35209;51.050;13.678;2023-02-19T23:53:56;100633.16;;;3.09;96.49
49341;BME280;35209;51.050;13.678;2023-02-19T23:58:58;100628.84;;;3.11;97.20
